Tropical Cyclones
[Index]
Main Index Home Page Stock Weather Photos Extreme Storms Discussion Storm News and Storm Chasing Reports Tropical Cyclones / Hurricanes / Typhoons Weather Data and Links Wild Fires / Bushfires Weather Observation Techniques Weather Picture Catalogue Tornado Pictures and Reports Stock Video Footage and DVDs for sale
Season 2003-2004 Tropical Cyclone JANA Track Map
Season 2003-2004 Summaries (Operational Data): [AU] [SIO] [SPAC] [SH]
<<- Previous TC | 2003-2004 Season | Next TC ->>

click for intensity scale information  Lat/long Grid: Show Hide

 Date Labels: Show Hide

Operational Tropical Cyclone Data : JTWC Advisories

Name: JANA
Number: 0404

07 Dec 2003 00:00 UTC to 12 Dec 2003 00:00 UTC

    date/time    lat    long     hPa   cat  kts
2003-12-07 00    7.6    95.5                             
2003-12-07 04    7.7    96.0     998         30          
2003-12-07 10    7.8    96.2     992    1    40          
2003-12-07 16    8.0    96.6     990    1    45          
2003-12-07 22    8.1    97.0     985    2    55          
2003-12-08 04    7.9    98.0     970    2    60          
2003-12-08 10    8.4    98.0     960    3    70          
2003-12-08 16    8.8    98.7     960    3    75          
2003-12-08 22    9.6    99.2     960    3    75          
2003-12-09 04   10.6    99.4     960    3    75          
2003-12-09 10   11.8    99.4     965    3    70          
2003-12-09 16   12.8    99.4     965    3    70          
2003-12-09 22   13.6    99.4     965    3    70          
2003-12-10 04   14.0    98.8     970    2    60          
2003-12-10 10   14.5    98.4     970    2    60          
2003-12-10 16   14.9    97.9     970    2    60          
2003-12-10 22   14.7    97.6     985    2    50          
2003-12-11 04   14.8    96.8     990    1    40          
2003-12-11 10   15.0    95.9     990    1    40          
2003-12-11 16   15.2    95.0     992    1    40          
2003-12-11 22   15.0    94.0     997         33          
2003-12-12 00   14.9    94.3                             
Winds are 10-min average.

Tropical cyclone tracks developed by Michael Bath using operational warnings and advisories and Google Maps.


[Australian Severe Weather index] [Copyright Notice] [Email Contacts] [Search This Site] [Privacy Policy]
Document: tropical_cyclone_jana.htm Updated: 28 May 2013